Time;durP1;ratioP1;P1;durP2;ratioP2;P2;SDS_P1;SDS_P2;PMS_P1;PMS_P2;Temp;Humidity;BMP_temperature;BMP_pressure;BME280_temperature;BME280_humidity;BME280_pressure;Samples;Min_cycle;Max_cycle;Signal;HPM_P1;HPM_P2
2023/11/13 00:02:13;;;;;;;;;;;17.50;64.00;;;;;;5042239;28;20365;-63
2023/11/13 00:04:39;;;;;;;;;;;17.50;64.00;;;;;;5040009;28;19917;-62
2023/11/13 00:07:04;;;;;;;;;;;17.40;64.00;;;;;;5043072;28;19909;-62
2023/11/13 00:09:30;;;;;;;;;;;17.50;64.00;;;;;;5041457;28;20935;-63
2023/11/13 00:11:55;;;;;;;;;;;17.50;64.00;;;;;;5045833;28;20286;-62
2023/11/13 00:14:21;;;;;;;;;;;17.50;64.00;;;;;;5047540;28;19955;-63
2023/11/13 00:16:47;;;;;;;;;;;17.40;63.90;;;;;;5048769;28;19908;-60
2023/11/13 00:19:12;;;;;;;;;;;17.40;64.00;;;;;;5046095;28;19959;-63
2023/11/13 00:21:38;;;;;;;;;;;17.40;64.00;;;;;;5043485;28;19948;-59
2023/11/13 00:24:04;;;;;;;;;;;17.40;64.00;;;;;;5042082;28;19917;-63
2023/11/13 00:26:29;;;;;;;;;;;17.40;64.00;;;;;;5038914;28;19948;-63
2023/11/13 00:28:55;;;;;;;;;;;17.40;64.00;;;;;;5043299;28;19940;-62
2023/11/13 00:31:21;;;;;;;;;;;17.40;64.00;;;;;;5039492;28;19948;-63
2023/11/13 00:33:47;;;;;;;;;;;17.40;64.00;;;;;;5043020;28;19916;-63
2023/11/13 00:36:13;;;;;;;;;;;17.40;64.00;;;;;;5042126;28;19959;-63
2023/11/13 00:38:38;;;;;;;;;;;17.40;64.00;;;;;;5041948;28;19912;-60
2023/11/13 00:41:03;;;;;;;;;;;17.40;64.00;;;;;;5039115;28;19943;-57
2023/11/13 00:43:29;;;;;;;;;;;17.40;64.00;;;;;;5037309;28;19920;-63
2023/11/13 00:45:54;;;;;;;;;;;17.40;64.00;;;;;;5041170;28;19930;-63
2023/11/13 00:48:20;;;;;;;;;;;17.40;64.00;;;;;;5040811;28;20250;-63
2023/11/13 00:50:45;;;;;;;;;;;17.40;64.00;;;;;;5039543;28;19917;-63
2023/11/13 00:53:11;;;;;;;;;;;17.40;64.00;;;;;;5045062;28;19916;-63
2023/11/13 00:55:36;;;;;;;;;;;17.40;64.00;;;;;;5044924;28;19909;-61
2023/11/13 00:58:02;;;;;;;;;;;17.40;63.90;;;;;;5046150;28;19939;-63
2023/11/13 01:00:27;;;;;;;;;;;17.40;64.00;;;;;;5046721;28;19919;-62
2023/11/13 01:02:53;;;;;;;;;;;17.40;64.00;;;;;;5045892;28;19909;-63
2023/11/13 01:05:18;;;;;;;;;;;17.40;64.00;;;;;;5048494;28;19921;-63
2023/11/13 01:07:44;;;;;;;;;;;17.40;64.00;;;;;;5049317;28;19944;-62
2023/11/13 01:10:09;;;;;;;;;;;17.40;64.10;;;;;;5050861;28;20337;-62
2023/11/13 01:12:35;;;;;;;;;;;17.40;64.00;;;;;;5049042;28;20329;-62
2023/11/13 01:15:02;;;;;;;;;;;17.40;64.00;;;;;;5052611;28;19916;-63
2023/11/13 01:17:27;;;;;;;;;;;17.40;64.00;;;;;;5050152;28;19935;-63
2023/11/13 01:19:52;;;;;;;;;;;17.40;64.00;;;;;;5049513;28;19931;-63
2023/11/13 01:22:18;;;;;;;;;;;17.40;64.10;;;;;;5043242;28;20291;-62
2023/11/13 01:24:43;;;;;;;;;;;17.40;64.00;;;;;;5043005;28;19953;-62
2023/11/13 01:27:09;;;;;;;;;;;17.40;64.00;;;;;;5043755;28;20148;-63
2023/11/13 01:29:34;;;;;;;;;;;17.40;64.00;;;;;;5040254;28;19909;-63
2023/11/13 01:32:00;;;;;;;;;;;17.40;64.00;;;;;;5042965;28;19912;-63
2023/11/13 01:34:26;;;;;;;;;;;17.30;63.90;;;;;;5042444;28;20000;-63
2023/11/13 01:36:51;;;;;;;;;;;17.30;63.90;;;;;;5042498;28;19995;-63
2023/11/13 01:39:17;;;;;;;;;;;17.30;63.90;;;;;;5042284;28;20295;-63
2023/11/13 01:41:43;;;;;;;;;;;17.30;63.90;;;;;;5042702;28;20094;-63
2023/11/13 01:44:09;;;;;;;;;;;17.30;63.90;;;;;;5040854;28;19921;-63
2023/11/13 01:46:34;;;;;;;;;;;17.30;64.00;;;;;;5045297;28;20501;-63
2023/11/13 01:49:00;;;;;;;;;;;17.30;64.00;;;;;;5044568;28;19916;-63
2023/11/13 01:51:26;;;;;;;;;;;17.30;63.90;;;;;;5046047;28;20001;-63
2023/11/13 01:53:52;;;;;;;;;;;17.40;64.00;;;;;;5045081;28;21074;-63
2023/11/13 01:56:20;;;;;;;;;;;17.30;63.90;;;;;;5048495;28;19909;-63
2023/11/13 01:58:45;;;;;;;;;;;17.30;63.90;;;;;;5043145;28;19930;-63
2023/11/13 02:01:11;;;;;;;;;;;17.30;64.00;;;;;;5045383;28;19909;-63
2023/11/13 02:03:37;;;;;;;;;;;17.30;63.90;;;;;;5043911;28;19913;-63
2023/11/13 02:06:03;;;;;;;;;;;17.30;64.00;;;;;;5044394;28;19913;-63
2023/11/13 02:08:29;;;;;;;;;;;17.30;64.00;;;;;;5041118;28;19919;-64
2023/11/13 02:10:54;;;;;;;;;;;17.30;64.00;;;;;;5043476;28;19912;-63
2023/11/13 02:13:20;;;;;;;;;;;17.30;64.00;;;;;;5041316;28;20547;-62
2023/11/13 02:15:46;;;;;;;;;;;17.30;64.00;;;;;;5041641;28;19963;-63
2023/11/13 02:18:11;;;;;;;;;;;17.30;64.00;;;;;;5043798;28;20329;-63
2023/11/13 02:20:37;;;;;;;;;;;17.30;64.00;;;;;;5042979;28;19996;-62
2023/11/13 02:23:02;;;;;;;;;;;17.30;64.00;;;;;;5041561;28;20468;-64
2023/11/13 02:25:28;;;;;;;;;;;17.30;64.00;;;;;;5044052;28;20333;-64
2023/11/13 02:28:00;;;;;;;;;;;17.30;64.00;;;;;;5045509;28;20012;-63
2023/11/13 02:30:26;;;;;;;;;;;17.30;64.00;;;;;;5038248;28;19908;-63
2023/11/13 02:32:52;;;;;;;;;;;17.30;64.00;;;;;;5049074;28;19909;-63
2023/11/13 02:35:18;;;;;;;;;;;17.30;64.00;;;;;;5050714;28;19928;-63
2023/11/13 02:37:43;;;;;;;;;;;17.30;64.00;;;;;;5049857;28;19948;-62
2023/11/13 02:40:09;;;;;;;;;;;17.20;64.00;;;;;;5050139;28;19916;-62
2023/11/13 02:42:35;;;;;;;;;;;17.30;64.00;;;;;;5049073;28;19974;-60
2023/11/13 02:45:01;;;;;;;;;;;17.20;64.00;;;;;;5047219;28;19934;-64
2023/11/13 02:47:26;;;;;;;;;;;17.30;64.00;;;;;;5047430;28;19908;-64
2023/11/13 02:49:52;;;;;;;;;;;17.20;63.90;;;;;;5047234;28;19923;-63
2023/11/13 02:52:17;;;;;;;;;;;17.20;64.00;;;;;;5045461;28;19909;-63
2023/11/13 02:54:43;;;;;;;;;;;17.20;64.00;;;;;;5044637;28;19913;-63
2023/11/13 02:57:08;;;;;;;;;;;17.20;64.00;;;;;;5047046;28;19913;-63
2023/11/13 02:59:33;;;;;;;;;;;17.20;64.00;;;;;;5039562;28;20302;-63
2023/11/13 03:01:59;;;;;;;;;;;17.20;64.00;;;;;;5040531;28;20370;-64
2023/11/13 03:04:24;;;;;;;;;;;17.20;63.90;;;;;;5042956;28;19969;-64
2023/11/13 03:06:50;;;;;;;;;;;17.20;64.00;;;;;;5039304;28;19917;-63
2023/11/13 03:09:16;;;;;;;;;;;17.20;64.00;;;;;;5042730;28;20046;-63
2023/11/13 03:11:41;;;;;;;;;;;17.20;64.00;;;;;;5041474;28;19917;-63
2023/11/13 03:14:07;;;;;;;;;;;17.20;64.00;;;;;;5042533;28;19909;-63
2023/11/13 03:16:32;;;;;;;;;;;17.20;64.00;;;;;;5039346;28;19909;-64
2023/11/13 03:18:57;;;;;;;;;;;17.20;64.00;;;;;;5041422;28;20398;-63
2023/11/13 03:21:23;;;;;;;;;;;17.20;64.10;;;;;;5040349;28;20287;-64
2023/11/13 03:23:48;;;;;;;;;;;17.20;64.00;;;;;;5038616;28;19913;-64
2023/11/13 03:26:17;;;;;;;;;;;17.20;64.00;;;;;;5038329;28;19913;-64
2023/11/13 03:28:42;;;;;;;;;;;17.20;64.00;;;;;;5036685;28;19916;-59
2023/11/13 03:31:09;;;;;;;;;;;17.20;64.00;;;;;;5043056;28;19908;-63
2023/11/13 03:33:34;;;;;;;;;;;17.30;63.90;;;;;;5045643;28;19959;-64
2023/11/13 03:35:59;;;;;;;;;;;17.60;63.50;;;;;;5046233;28;20129;-63
2023/11/13 03:38:25;;;;;;;;;;;18.00;62.40;;;;;;5046076;28;19991;-64
2023/11/13 03:40:51;;;;;;;;;;;18.70;60.90;;;;;;5046296;28;19917;-64
2023/11/13 03:43:17;;;;;;;;;;;19.30;59.30;;;;;;5043310;28;19909;-63
2023/11/13 03:45:42;;;;;;;;;;;19.90;58.00;;;;;;5045616;28;20252;-63
2023/11/13 03:48:08;;;;;;;;;;;20.40;56.60;;;;;;5045150;28;19909;-63
2023/11/13 03:50:33;;;;;;;;;;;21.00;55.30;;;;;;5047728;28;19909;-63
2023/11/13 03:52:59;;;;;;;;;;;21.40;54.30;;;;;;5046412;28;19912;-64
2023/11/13 03:55:26;;;;;;;;;;;21.80;53.80;;;;;;5046188;28;20362;-62
2023/11/13 03:57:52;;;;;;;;;;;22.10;53.00;;;;;;5044702;28;19944;-63
2023/11/13 04:00:19;;;;;;;;;;;22.30;52.60;;;;;;5046291;28;19998;-63
2023/11/13 04:02:48;;;;;;;;;;;22.30;52.50;;;;;;5044887;28;19909;-63
2023/11/13 04:05:14;;;;;;;;;;;22.20;52.60;;;;;;5047780;28;19917;-64
2023/11/13 04:07:39;;;;;;;;;;;22.10;53.00;;;;;;5045225;28;20434;-63
2023/11/13 04:10:05;;;;;;;;;;;21.90;53.40;;;;;;5044271;28;20000;-62
2023/11/13 04:12:31;;;;;;;;;;;21.70;53.70;;;;;;5045013;28;19909;-63
2023/11/13 04:14:57;;;;;;;;;;;21.60;54.20;;;;;;5045060;28;19929;-63
2023/11/13 04:17:23;;;;;;;;;;;21.40;54.80;;;;;;5045983;28;20366;-64
2023/11/13 04:19:48;;;;;;;;;;;21.20;55.20;;;;;;5040905;28;20220;-64
2023/11/13 04:22:14;;;;;;;;;;;21.00;55.60;;;;;;5044517;28;20298;-63
2023/11/13 04:24:39;;;;;;;;;;;20.90;56.00;;;;;;5044951;28;19960;-63
2023/11/13 04:27:05;;;;;;;;;;;20.70;56.40;;;;;;5044181;28;20268;-63
2023/11/13 04:29:31;;;;;;;;;;;20.50;56.80;;;;;;5038770;28;19916;-64
2023/11/13 04:31:56;;;;;;;;;;;20.40;57.20;;;;;;5040888;28;21486;-63
2023/11/13 04:34:22;;;;;;;;;;;20.20;57.70;;;;;;5040081;28;19943;-63
2023/11/13 04:36:47;;;;;;;;;;;20.10;58.00;;;;;;5041619;28;19916;-62
2023/11/13 04:39:15;;;;;;;;;;;19.90;58.30;;;;;;5044464;28;19909;-63
2023/11/13 04:41:41;;;;;;;;;;;19.80;58.60;;;;;;5044684;28;19959;-64
2023/11/13 04:44:06;;;;;;;;;;;19.70;59.00;;;;;;5044172;28;19909;-63
2023/11/13 04:46:32;;;;;;;;;;;19.50;59.20;;;;;;5043551;28;19912;-63
2023/11/13 04:48:58;;;;;;;;;;;19.50;59.40;;;;;;5049513;28;20195;-63
2023/11/13 04:51:24;;;;;;;;;;;19.40;59.60;;;;;;5041435;28;19913;-64
2023/11/13 04:53:49;;;;;;;;;;;19.30;59.90;;;;;;5041809;28;20005;-64
2023/11/13 04:56:15;;;;;;;;;;;19.20;60.10;;;;;;5040004;28;20394;-63
2023/11/13 04:58:41;;;;;;;;;;;19.20;60.20;;;;;;5039284;28;19975;-63
2023/11/13 05:01:07;;;;;;;;;;;19.10;60.40;;;;;;5043137;28;20343;-55
2023/11/13 05:03:33;;;;;;;;;;;19.00;60.50;;;;;;5047786;28;20405;-64
2023/11/13 05:05:59;;;;;;;;;;;18.90;60.60;;;;;;5047818;28;20335;-64
2023/11/13 05:08:25;;;;;;;;;;;18.90;60.80;;;;;;5049709;28;19966;-63
2023/11/13 05:10:50;;;;;;;;;;;18.80;61.10;;;;;;5047604;28;19925;-63
2023/11/13 05:13:16;;;;;;;;;;;18.80;61.10;;;;;;5046841;28;19913;-64
2023/11/13 05:15:42;;;;;;;;;;;18.70;61.20;;;;;;5048123;28;19908;-64
2023/11/13 05:18:07;;;;;;;;;;;18.60;61.30;;;;;;5048080;28;20429;-63
2023/11/13 05:20:39;;;;;;;;;;;18.60;61.40;;;;;;5049217;28;20011;-63
2023/11/13 05:23:06;;;;;;;;;;;18.50;61.40;;;;;;5048995;28;19966;-63
2023/11/13 05:25:32;;;;;;;;;;;18.50;61.60;;;;;;5048221;28;19912;-64
2023/11/13 05:27:58;;;;;;;;;;;18.50;61.70;;;;;;5047717;28;19908;-63
2023/11/13 05:30:24;;;;;;;;;;;18.40;61.70;;;;;;5048297;28;19913;-61
2023/11/13 05:32:49;;;;;;;;;;;18.40;61.90;;;;;;5048307;28;19912;-63
2023/11/13 05:35:15;;;;;;;;;;;18.40;62.00;;;;;;5048842;28;19909;-63
2023/11/13 05:37:41;;;;;;;;;;;18.30;61.90;;;;;;5048087;28;19909;-64
2023/11/13 05:40:07;;;;;;;;;;;18.30;62.10;;;;;;5047080;28;19991;-62
2023/11/13 05:42:36;;;;;;;;;;;18.20;62.00;;;;;;5048416;28;19935;-63
2023/11/13 05:45:01;;;;;;;;;;;18.20;62.20;;;;;;5048644;28;20001;-63
2023/11/13 05:47:27;;;;;;;;;;;18.20;62.30;;;;;;5047936;28;20000;-63
2023/11/13 05:49:53;;;;;;;;;;;18.20;62.30;;;;;;5047966;28;19917;-63
2023/11/13 05:52:18;;;;;;;;;;;18.10;62.30;;;;;;5049043;28;19909;-63
2023/11/13 05:54:44;;;;;;;;;;;18.10;62.30;;;;;;5048149;28;20574;-63
2023/11/13 05:57:10;;;;;;;;;;;18.10;62.40;;;;;;5046979;28;19924;-63
2023/11/13 05:59:36;;;;;;;;;;;18.10;62.40;;;;;;5040511;28;20004;-63
2023/11/13 06:02:01;;;;;;;;;;;18.10;62.40;;;;;;5041948;28;20029;-63
2023/11/13 06:04:27;;;;;;;;;;;18.10;62.50;;;;;;5037482;28;19917;-62
2023/11/13 06:06:53;;;;;;;;;;;18.10;62.50;;;;;;5042518;28;19920;-63
2023/11/13 06:09:18;;;;;;;;;;;18.00;62.40;;;;;;5044260;28;19909;-64
2023/11/13 06:11:45;;;;;;;;;;;18.00;62.50;;;;;;5045785;28;19908;-63
2023/11/13 06:14:11;;;;;;;;;;;18.00;62.50;;;;;;5043170;28;19928;-64
2023/11/13 06:16:37;;;;;;;;;;;17.90;62.50;;;;;;5042673;28;19962;-63
2023/11/13 06:19:07;;;;;;;;;;;17.90;62.50;;;;;;5042637;28;19920;-63
2023/11/13 06:21:33;;;;;;;;;;;17.90;62.60;;;;;;5040132;28;19952;-63
2023/11/13 06:23:58;;;;;;;;;;;17.90;62.60;;;;;;5041204;28;19909;-64
2023/11/13 06:26:24;;;;;;;;;;;17.90;62.70;;;;;;5040521;28;20326;-65
2023/11/13 06:28:50;;;;;;;;;;;17.90;62.70;;;;;;5040022;28;20290;-63
2023/11/13 06:31:20;;;;;;;;;;;17.90;62.70;;;;;;5042964;28;19912;-63
2023/11/13 06:33:47;;;;;;;;;;;17.90;62.70;;;;;;5048001;28;19974;-64
2023/11/13 06:36:13;;;;;;;;;;;17.90;62.80;;;;;;5047719;28;19947;-64
2023/11/13 06:38:39;;;;;;;;;;;17.80;62.80;;;;;;5045084;28;19971;-64
2023/11/13 06:41:05;;;;;;;;;;;17.80;62.80;;;;;;5046509;28;20402;-62
2023/11/13 06:43:33;;;;;;;;;;;17.80;62.90;;;;;;5047367;28;20286;-64
2023/11/13 06:45:59;;;;;;;;;;;17.80;62.90;;;;;;5046330;28;19924;-64
2023/11/13 06:48:25;;;;;;;;;;;17.80;62.90;;;;;;5046373;28;20363;-64
2023/11/13 06:50:50;;;;;;;;;;;17.80;63.00;;;;;;5046079;28;20322;-63
2023/11/13 06:53:16;;;;;;;;;;;17.80;62.90;;;;;;5045786;28;19909;-64
2023/11/13 06:55:41;;;;;;;;;;;17.80;62.90;;;;;;5047246;28;19995;-64
2023/11/13 06:58:11;;;;;;;;;;;17.80;62.90;;;;;;5046536;28;20484;-64
2023/11/13 07:00:36;;;;;;;;;;;17.70;62.90;;;;;;5046800;28;19909;-63
2023/11/13 07:03:02;;;;;;;;;;;17.70;62.90;;;;;;5045550;28;20436;-63
2023/11/13 07:05:28;;;;;;;;;;;17.70;62.90;;;;;;5046270;28;19921;-63
2023/11/13 07:07:55;;;;;;;;;;;17.70;62.80;;;;;;5044580;28;19908;-63
2023/11/13 07:10:21;;;;;;;;;;;17.70;62.90;;;;;;5046246;28;19991;-63
2023/11/13 07:12:49;;;;;;;;;;;17.70;62.90;;;;;;5045108;28;20008;-63
2023/11/13 07:15:14;;;;;;;;;;;17.70;62.90;;;;;;5046134;28;20375;-64
2023/11/13 07:17:40;;;;;;;;;;;17.70;62.90;;;;;;5047079;28;19909;-63
2023/11/13 07:20:09;;;;;;;;;;;17.70;62.90;;;;;;5045262;28;19916;-62
2023/11/13 07:22:36;;;;;;;;;;;17.70;62.90;;;;;;5047334;28;19917;-63
2023/11/13 07:25:01;;;;;;;;;;;17.60;62.90;;;;;;5045848;28;19970;-63
2023/11/13 07:27:27;;;;;;;;;;;17.70;63.00;;;;;;5046048;28;19921;-63
2023/11/13 07:29:56;;;;;;;;;;;17.60;63.00;;;;;;5042973;28;19916;-63
2023/11/13 07:32:24;;;;;;;;;;;17.60;63.10;;;;;;5040743;28;20247;-63
2023/11/13 07:34:52;;;;;;;;;;;17.60;63.10;;;;;;5039356;28;19920;-63
2023/11/13 07:37:17;;;;;;;;;;;17.60;63.10;;;;;;5040487;28;19947;-65
2023/11/13 07:39:43;;;;;;;;;;;17.60;63.10;;;;;;5035741;28;19940;-63
2023/11/13 07:42:09;;;;;;;;;;;17.60;63.10;;;;;;5038536;28;20443;-64
2023/11/13 07:44:38;;;;;;;;;;;17.60;63.10;;;;;;5041627;28;19986;-64
2023/11/13 07:47:04;;;;;;;;;;;17.60;63.20;;;;;;5041992;28;19916;-64
2023/11/13 07:49:30;;;;;;;;;;;17.60;63.20;;;;;;5041900;28;19938;-63
2023/11/13 07:51:56;;;;;;;;;;;17.60;63.20;;;;;;5039022;28;20004;-64
2023/11/13 07:54:21;;;;;;;;;;;17.60;63.90;;;;;;5041495;28;19995;-63
2023/11/13 07:56:47;;;;;;;;;;;17.60;63.30;;;;;;5038968;28;20336;-63
2023/11/13 07:59:15;;;;;;;;;;;17.60;63.30;;;;;;5041167;28;19916;-64
2023/11/13 08:01:40;;;;;;;;;;;17.60;63.30;;;;;;5044853;28;19916;-65
2023/11/13 08:04:07;;;;;;;;;;;17.60;63.30;;;;;;5044487;28;19908;-63
2023/11/13 08:06:33;;;;;;;;;;;17.50;63.20;;;;;;5045851;28;19913;-64
2023/11/13 08:08:59;;;;;;;;;;;17.60;63.30;;;;;;5044426;28;19916;-64
2023/11/13 08:11:24;;;;;;;;;;;17.50;63.20;;;;;;5044521;28;19916;-64
2023/11/13 08:13:50;;;;;;;;;;;17.50;63.30;;;;;;5048392;28;20001;-59
2023/11/13 08:16:15;;;;;;;;;;;17.50;63.30;;;;;;5049352;28;19909;-63
2023/11/13 08:18:42;;;;;;;;;;;17.60;63.30;;;;;;5049703;28;19946;-64
2023/11/13 08:21:10;;;;;;;;;;;17.50;63.20;;;;;;5050587;28;19915;-63
2023/11/13 08:23:35;;;;;;;;;;;17.50;63.30;;;;;;5043021;28;20286;-63
2023/11/13 08:26:03;;;;;;;;;;;17.50;63.30;;;;;;5059701;28;19966;-63
2023/11/13 08:28:31;;;;;;;;;;;17.50;63.30;;;;;;5048657;28;20007;-63
2023/11/13 08:30:57;;;;;;;;;;;17.50;63.40;;;;;;5041698;28;20116;-63
2023/11/13 08:33:22;;;;;;;;;;;17.50;63.40;;;;;;5043448;28;20133;-63
2023/11/13 08:35:49;;;;;;;;;;;17.50;63.40;;;;;;5042759;28;19949;-63
2023/11/13 08:38:16;;;;;;;;;;;17.50;63.40;;;;;;5043568;28;19908;-64
2023/11/13 08:40:41;;;;;;;;;;;17.50;63.40;;;;;;5042989;28;20011;-63
2023/11/13 08:43:10;;;;;;;;;;;17.50;63.40;;;;;;5040948;28;19967;-63
2023/11/13 08:45:37;;;;;;;;;;;17.50;63.40;;;;;;5044333;28;19917;-63
2023/11/13 08:48:03;;;;;;;;;;;17.50;63.40;;;;;;5042216;28;19952;-63
2023/11/13 08:50:30;;;;;;;;;;;17.50;63.40;;;;;;5038225;28;19916;-64
2023/11/13 08:52:56;;;;;;;;;;;17.50;63.40;;;;;;5043491;28;19908;-63
2023/11/13 08:55:23;;;;;;;;;;;17.50;63.40;;;;;;5046301;28;20009;-64
2023/11/13 08:57:48;;;;;;;;;;;17.50;63.40;;;;;;5046023;28;20205;-58
2023/11/13 09:00:21;;;;;;;;;;;17.50;63.40;;;;;;5043606;28;19909;-64
2023/11/13 09:02:50;;;;;;;;;;;17.40;63.40;;;;;;5046240;28;19908;-63
2023/11/13 09:05:19;;;;;;;;;;;17.40;63.40;;;;;;5047399;28;19913;-63
2023/11/13 09:07:45;;;;;;;;;;;17.40;63.40;;;;;;5048624;28;20437;-63
2023/11/13 09:10:10;;;;;;;;;;;17.40;63.40;;;;;;5048208;28;19908;-63
2023/11/13 09:12:37;;;;;;;;;;;17.40;63.40;;;;;;5045645;28;19944;-63
2023/11/13 09:15:04;;;;;;;;;;;17.40;63.50;;;;;;5046546;28;19948;-63
2023/11/13 09:17:31;;;;;;;;;;;17.40;63.50;;;;;;5047546;28;19908;-63
2023/11/13 09:19:56;;;;;;;;;;;17.40;63.50;;;;;;5046448;28;19909;-64
2023/11/13 09:22:21;;;;;;;;;;;17.40;63.50;;;;;;5048402;28;19919;-64
2023/11/13 09:24:47;;;;;;;;;;;17.40;63.50;;;;;;5048265;28;20006;-63
2023/11/13 09:27:14;;;;;;;;;;;17.40;63.50;;;;;;5049783;28;19913;-63
2023/11/13 09:29:43;;;;;;;;;;;17.40;63.50;;;;;;5049267;28;19909;-64
2023/11/13 09:32:09;;;;;;;;;;;17.40;63.50;;;;;;5049867;28;19932;-63
2023/11/13 09:34:35;;;;;;;;;;;17.40;63.50;;;;;;5050554;28;19947;-63
2023/11/13 09:37:00;;;;;;;;;;;17.40;63.40;;;;;;5046212;28;19908;-63
2023/11/13 09:39:32;;;;;;;;;;;17.40;63.50;;;;;;5049408;28;19959;-64
2023/11/13 09:42:03;;;;;;;;;;;17.40;64.20;;;;;;5046422;28;19917;-63
2023/11/13 09:44:31;;;;;;;;;;;17.40;63.50;;;;;;5047563;28;20367;-64
2023/11/13 09:47:02;;;;;;;;;;;17.40;63.50;;;;;;5047572;28;20007;-64
2023/11/13 09:49:30;;;;;;;;;;;17.40;63.50;;;;;;5016522;28;19951;-64
2023/11/13 09:51:58;;;;;;;;;;;17.40;63.60;;;;;;5021019;28;20080;-65
2023/11/13 09:54:25;;;;;;;;;;;17.40;63.50;;;;;;5047431;28;19909;-64
2023/11/13 09:56:53;;;;;;;;;;;17.40;63.50;;;;;;5048756;28;19956;-64
2023/11/13 09:59:19;;;;;;;;;;;17.40;63.60;;;;;;5045496;28;19909;-64
2023/11/13 10:01:45;;;;;;;;;;;17.30;63.50;;;;;;5040108;28;19948;-63
2023/11/13 10:04:10;;;;;;;;;;;17.30;63.50;;;;;;5019510;28;19956;-64
2023/11/13 10:06:36;;;;;;;;;;;17.30;63.50;;;;;;5002811;28;20208;-64
2023/11/13 10:09:04;;;;;;;;;;;17.40;63.60;;;;;;5042018;28;19913;-64
2023/11/13 10:11:29;;;;;;;;;;;17.30;63.50;;;;;;5038451;28;19920;-64
2023/11/13 10:14:09;;;;;;;;;;;17.30;63.50;;;;;;5039531;28;19950;-64
2023/11/13 10:16:35;;;;;;;;;;;17.30;63.50;;;;;;5037518;28;19916;-64
2023/11/13 10:19:13;;;;;;;;;;;17.30;63.50;;;;;;5041827;28;19913;-63
2023/11/13 10:21:38;;;;;;;;;;;17.30;63.50;;;;;;5043390;28;20390;-61
2023/11/13 10:24:15;;;;;;;;;;;17.30;63.50;;;;;;5044600;28;19935;-64
2023/11/13 10:26:41;;;;;;;;;;;17.40;63.50;;;;;;5040631;28;19971;-64
2023/11/13 10:29:20;;;;;;;;;;;17.30;63.50;;;;;;5042210;28;20087;-63
2023/11/13 10:31:45;;;;;;;;;;;17.30;63.50;;;;;;5041123;28;19909;-62
2023/11/13 10:34:11;;;;;;;;;;;17.30;63.60;;;;;;5043749;28;20268;-63
2023/11/13 10:36:36;;;;;;;;;;;17.30;63.50;;;;;;5046389;28;19916;-64
2023/11/13 10:39:11;;;;;;;;;;;17.30;63.60;;;;;;5045708;28;20425;-64
2023/11/13 10:41:43;;;;;;;;;;;17.30;63.60;;;;;;5041588;28;19922;-65
2023/11/13 10:44:27;;;;;;;;;;;17.30;63.50;;;;;;5046111;28;19955;-65
2023/11/13 10:46:52;;;;;;;;;;;17.30;63.60;;;;;;5046215;28;19920;-66
2023/11/13 10:49:18;;;;;;;;;;;17.30;63.70;;;;;;5043736;28;19916;-65
2023/11/13 10:51:50;;;;;;;;;;;17.30;63.70;;;;;;5044322;28;19916;-64
2023/11/13 10:54:17;;;;;;;;;;;17.30;63.70;;;;;;5041447;28;19916;-65
2023/11/13 10:56:49;;;;;;;;;;;17.20;63.60;;;;;;5046428;28;20363;-64
2023/11/13 10:59:15;;;;;;;;;;;17.30;63.80;;;;;;5045335;28;20371;-65
2023/11/13 11:01:42;;;;;;;;;;;17.20;63.80;;;;;;5047079;28;19923;-64
2023/11/13 11:04:08;;;;;;;;;;;17.20;63.80;;;;;;5046558;28;19944;-64
2023/11/13 11:06:35;;;;;;;;;;;17.20;63.80;;;;;;5045842;28;19920;-65
2023/11/13 11:09:04;;;;;;;;;;;17.20;63.80;;;;;;5045977;28;20007;-64
2023/11/13 11:11:31;;;;;;;;;;;17.30;63.90;;;;;;5046310;28;19908;-64
2023/11/13 11:14:00;;;;;;;;;;;17.30;63.90;;;;;;5047314;28;20413;-64
2023/11/13 11:16:32;;;;;;;;;;;17.30;63.90;;;;;;5042171;28;19917;-64
2023/11/13 11:19:02;;;;;;;;;;;17.20;63.80;;;;;;5047148;28;19912;-64
2023/11/13 11:21:53;;;;;;;;;;;17.30;63.90;;;;;;5047358;28;19915;-65
2023/11/13 11:24:20;;;;;;;;;;;17.30;63.90;;;;;;5046284;28;20362;-65
2023/11/13 11:26:48;;;;;;;;;;;17.20;63.90;;;;;;5046204;28;19909;-64
2023/11/13 11:29:33;;;;;;;;;;;17.20;63.80;;;;;;5044989;28;19912;-64
2023/11/13 11:32:25;;;;;;;;;;;17.20;63.80;;;;;;5039982;28;19916;-63
2023/11/13 11:34:52;;;;;;;;;;;17.20;63.80;;;;;;5038249;28;19916;-64
2023/11/13 11:37:18;;;;;;;;;;;17.30;63.90;;;;;;5041816;28;19908;-64
2023/11/13 11:39:44;;;;;;;;;;;17.20;63.80;;;;;;5040327;28;21366;-64
2023/11/13 11:42:15;;;;;;;;;;;17.20;63.80;;;;;;5041515;28;19916;-64
2023/11/13 11:45:02;;;;;;;;;;;17.20;63.90;;;;;;5037030;28;19956;-64
2023/11/13 11:47:28;;;;;;;;;;;17.20;63.90;;;;;;5037232;28;20019;-64
2023/11/13 11:49:57;;;;;;;;;;;17.20;64.00;;;;;;5037021;28;20008;-65
2023/11/13 11:52:40;;;;;;;;;;;17.20;64.00;;;;;;5035961;28;19912;-65
2023/11/13 11:55:06;;;;;;;;;;;17.20;64.00;;;;;;5034491;28;20410;-64
2023/11/13 11:57:31;;;;;;;;;;;17.20;64.00;;;;;;5040703;28;19916;-64
2023/11/13 12:00:00;;;;;;;;;;;17.20;64.00;;;;;;5042828;28;19915;-63
2023/11/13 12:02:28;;;;;;;;;;;17.20;64.00;;;;;;5042852;28;19967;-64
2023/11/13 12:04:54;;;;;;;;;;;17.20;64.00;;;;;;5039117;28;19919;-63
2023/11/13 12:07:20;;;;;;;;;;;17.20;64.00;;;;;;5045892;28;19909;-64
2023/11/13 12:09:45;;;;;;;;;;;17.30;63.90;;;;;;5045237;28;19919;-64
2023/11/13 12:12:11;;;;;;;;;;;17.50;63.50;;;;;;5046111;28;19925;-64
2023/11/13 12:14:37;;;;;;;;;;;17.90;62.70;;;;;;5045258;28;19909;-64
2023/11/13 12:17:04;;;;;;;;;;;18.40;61.60;;;;;;5046383;28;19975;-64
2023/11/13 12:19:30;;;;;;;;;;;19.00;60.00;;;;;;5046451;28;20278;-64
2023/11/13 12:21:56;;;;;;;;;;;19.60;58.50;;;;;;5045389;28;19999;-64
2023/11/13 12:24:22;;;;;;;;;;;20.00;57.30;;;;;;5045012;28;19970;-65
2023/11/13 12:26:49;;;;;;;;;;;20.50;56.30;;;;;;5046603;28;19913;-64
2023/11/13 12:29:15;;;;;;;;;;;20.90;55.50;;;;;;5044696;28;19965;-64
2023/11/13 12:31:44;;;;;;;;;;;21.20;54.70;;;;;;5046029;28;19913;-64
2023/11/13 12:34:10;;;;;;;;;;;21.40;54.20;;;;;;5046319;28;20350;-64
2023/11/13 12:36:36;;;;;;;;;;;21.60;53.90;;;;;;5045870;28;19974;-64
2023/11/13 12:39:04;;;;;;;;;;;21.80;53.60;;;;;;5044481;28;19909;-65
2023/11/13 12:41:30;;;;;;;;;;;21.90;53.30;;;;;;5046429;28;19917;-65
2023/11/13 12:43:55;;;;;;;;;;;22.00;53.20;;;;;;5046849;28;19908;-65
2023/11/13 12:46:22;;;;;;;;;;;21.90;53.30;;;;;;5047246;28;19913;-65
2023/11/13 12:48:48;;;;;;;;;;;21.80;53.70;;;;;;5043965;28;19909;-65
2023/11/13 12:51:14;;;;;;;;;;;21.60;54.00;;;;;;5048133;28;20204;-65
2023/11/13 12:53:46;;;;;;;;;;;21.40;54.50;;;;;;5045948;28;19986;-58
2023/11/13 12:56:11;;;;;;;;;;;21.20;55.00;;;;;;5047215;28;20407;-64
2023/11/13 12:58:37;;;;;;;;;;;21.10;55.40;;;;;;5040803;28;19924;-65
2023/11/13 13:01:05;;;;;;;;;;;21.00;55.70;;;;;;5042472;28;19912;-65
2023/11/13 13:03:32;;;;;;;;;;;20.80;56.00;;;;;;5043690;28;20205;-66
2023/11/13 13:05:58;;;;;;;;;;;20.60;56.50;;;;;;5046914;28;19912;-59
2023/11/13 13:08:27;;;;;;;;;;;20.50;56.90;;;;;;5046035;28;19915;-65
2023/11/13 13:10:53;;;;;;;;;;;20.30;57.30;;;;;;5045882;28;19923;-66
2023/11/13 13:13:19;;;;;;;;;;;20.10;57.70;;;;;;5044436;28;19909;-64
2023/11/13 13:15:45;;;;;;;;;;;20.00;58.10;;;;;;5043196;28;19909;-65
2023/11/13 13:18:12;;;;;;;;;;;19.80;58.60;;;;;;5044227;28;19924;-64
2023/11/13 13:20:39;;;;;;;;;;;19.70;58.90;;;;;;5041734;28;20377;-64
2023/11/13 13:23:04;;;;;;;;;;;19.60;59.10;;;;;;5040267;28;19912;-64
2023/11/13 13:25:34;;;;;;;;;;;19.50;59.50;;;;;;5040787;28;20512;-65
2023/11/13 13:28:00;;;;;;;;;;;19.40;59.70;;;;;;5038824;28;19909;-65
2023/11/13 13:30:29;;;;;;;;;;;19.30;59.90;;;;;;5041224;28;19909;-64
2023/11/13 13:32:56;;;;;;;;;;;19.20;60.10;;;;;;5046956;28;20318;-64
2023/11/13 13:35:23;;;;;;;;;;;19.20;60.30;;;;;;5048981;28;19909;-65
2023/11/13 13:37:48;;;;;;;;;;;19.10;60.50;;;;;;5048948;28;19986;-65
2023/11/13 13:40:15;;;;;;;;;;;19.00;60.60;;;;;;5047445;28;19975;-65
2023/11/13 13:42:40;;;;;;;;;;;19.00;60.80;;;;;;5047252;28;19923;-65
2023/11/13 13:45:07;;;;;;;;;;;18.90;60.90;;;;;;5047829;28;19913;-64
2023/11/13 13:47:34;;;;;;;;;;;18.80;61.10;;;;;;5048546;28;19909;-65
2023/11/13 13:50:00;;;;;;;;;;;18.80;61.30;;;;;;5046160;28;19912;-65
2023/11/13 13:52:29;;;;;;;;;;;18.70;61.40;;;;;;5047322;28;20278;-65
2023/11/13 13:54:58;;;;;;;;;;;18.70;61.50;;;;;;5047286;28;20618;-64
2023/11/13 13:57:24;;;;;;;;;;;18.60;61.70;;;;;;5048109;28;20381;-64
2023/11/13 13:59:49;;;;;;;;;;;18.60;61.70;;;;;;5046676;28;19909;-59
2023/11/13 14:02:15;;;;;;;;;;;18.60;61.80;;;;;;5046022;28;19912;-65
2023/11/13 14:04:40;;;;;;;;;;;18.50;62.50;;;;;;5047156;28;19913;-65
2023/11/13 14:07:06;;;;;;;;;;;18.50;61.90;;;;;;5047583;28;19912;-62
2023/11/13 14:09:32;;;;;;;;;;;18.40;62.00;;;;;;5041749;28;19972;-62
2023/11/13 14:11:57;;;;;;;;;;;18.40;62.10;;;;;;5045324;28;20271;-62
2023/11/13 14:14:22;;;;;;;;;;;18.30;62.10;;;;;;5048807;28;19919;-62